Main page
METAR-TAF:

METAR-TAF

Airports :

Ruben Berta International Airport

Uruguaiana, Rio Grande do Sul, Brazil

latitude: 29-47S, longitude: 057-02W, elevation: 74 m

METAR: missing

Time: 04:42 (07:42 UTC)

Forecast

The report was made 4 hours and 42 minutes ago, at 03:00 UTC
Forecast valid from 22 at 06 UTC to 22 at 18 UTC
Wind 10 kt from the East/Southeast
Visibility 10 km or more
Few clouds at a height of 3500 ft
Probability 40%
from 22 at 06 UTC to 22 at 11 UTC
Broken clouds at a height of 500 ft

TAF: SBUG 220300Z 2206/2218 11010KT 9999 FEW035 TN22/2208Z TX30/2218Z PROB40 2206/2211 BKN005 RMK PDJ

Weather observations and forecasts of more than 4000 airports (METAR and TAF reports).

The available stations are represented by yellow and red dots on the map.

Hover mouse over dot to see the name of the station.

Then click to see weather observations and forecasts.

To change the map : click on the green buttons with a black cross to zoom in, on the green button with a dash to zoom out, or on the green arrows for adjacent maps.


METAR-TAF: